sensor_id;sensor_type;location;lat;lon;timestamp;P1;durP1;ratioP1;P2;durP2;ratioP2
54171;SDS011;40076;52.354;4.970;2022-11-20T00:00:53;14.40;;;8.52;;
54171;SDS011;40076;52.354;4.970;2022-11-20T00:03:18;15.13;;;9.40;;
54171;SDS011;40076;52.354;4.970;2022-11-20T00:05:44;13.05;;;8.40;;
54171;SDS011;40076;52.354;4.970;2022-11-20T00:08:09;14.60;;;9.38;;
54171;SDS011;40076;52.354;4.970;2022-11-20T00:10:36;14.38;;;9.20;;
54171;SDS011;40076;52.354;4.970;2022-11-20T00:13:02;14.98;;;8.80;;
54171;SDS011;40076;52.354;4.970;2022-11-20T00:15:27;13.55;;;9.23;;
54171;SDS011;40076;52.354;4.970;2022-11-20T00:17:53;13.60;;;8.63;;
54171;SDS011;40076;52.354;4.970;2022-11-20T00:20:18;13.43;;;8.68;;
54171;SDS011;40076;52.354;4.970;2022-11-20T00:22:43;14.55;;;8.75;;
54171;SDS011;40076;52.354;4.970;2022-11-20T00:25:09;14.98;;;9.23;;
54171;SDS011;40076;52.354;4.970;2022-11-20T00:27:34;13.13;;;8.40;;
54171;SDS011;40076;52.354;4.970;2022-11-20T00:30:00;13.80;;;9.15;;
54171;SDS011;40076;52.354;4.970;2022-11-20T00:32:26;14.40;;;8.73;;
54171;SDS011;40076;52.354;4.970;2022-11-20T00:34:51;13.85;;;8.95;;
54171;SDS011;40076;52.354;4.970;2022-11-20T00:37:16;12.80;;;8.40;;
54171;SDS011;40076;52.354;4.970;2022-11-20T00:39:42;15.00;;;8.82;;
54171;SDS011;40076;52.354;4.970;2022-11-20T00:42:07;14.73;;;9.52;;
54171;SDS011;40076;52.354;4.970;2022-11-20T00:44:32;14.77;;;9.23;;
54171;SDS011;40076;52.354;4.970;2022-11-20T00:46:58;14.88;;;9.38;;
54171;SDS011;40076;52.354;4.970;2022-11-20T00:49:23;15.35;;;9.88;;
54171;SDS011;40076;52.354;4.970;2022-11-20T00:51:48;13.73;;;8.98;;
54171;SDS011;40076;52.354;4.970;2022-11-20T00:54:14;12.95;;;9.10;;
54171;SDS011;40076;52.354;4.970;2022-11-20T00:56:39;13.73;;;8.88;;
54171;SDS011;40076;52.354;4.970;2022-11-20T00:59:05;16.73;;;8.68;;
54171;SDS011;40076;52.354;4.970;2022-11-20T01:01:30;16.23;;;9.52;;
54171;SDS011;40076;52.354;4.970;2022-11-20T01:03:57;15.85;;;8.93;;
54171;SDS011;40076;52.354;4.970;2022-11-20T01:06:25;13.07;;;9.02;;
54171;SDS011;40076;52.354;4.970;2022-11-20T01:08:56;14.48;;;8.95;;
54171;SDS011;40076;52.354;4.970;2022-11-20T01:11:24;14.57;;;8.82;;
54171;SDS011;40076;52.354;4.970;2022-11-20T01:13:51;15.07;;;9.00;;
54171;SDS011;40076;52.354;4.970;2022-11-20T01:16:19;13.35;;;8.98;;
54171;SDS011;40076;52.354;4.970;2022-11-20T01:18:50;14.65;;;9.18;;
54171;SDS011;40076;52.354;4.970;2022-11-20T01:21:36;15.32;;;9.10;;
54171;SDS011;40076;52.354;4.970;2022-11-20T01:24:04;15.80;;;9.65;;
54171;SDS011;40076;52.354;4.970;2022-11-20T01:26:33;14.75;;;9.50;;
54171;SDS011;40076;52.354;4.970;2022-11-20T01:29:00;13.25;;;8.73;;
54171;SDS011;40076;52.354;4.970;2022-11-20T01:31:30;14.77;;;8.57;;
54171;SDS011;40076;52.354;4.970;2022-11-20T01:33:58;14.30;;;9.20;;
54171;SDS011;40076;52.354;4.970;2022-11-20T01:36:26;14.80;;;9.38;;
54171;SDS011;40076;52.354;4.970;2022-11-20T01:38:53;14.70;;;9.10;;
54171;SDS011;40076;52.354;4.970;2022-11-20T01:41:20;16.77;;;9.55;;
54171;SDS011;40076;52.354;4.970;2022-11-20T01:44:05;13.55;;;8.60;;
54171;SDS011;40076;52.354;4.970;2022-11-20T01:46:35;15.55;;;9.93;;
54171;SDS011;40076;52.354;4.970;2022-11-20T01:49:04;13.53;;;8.17;;
54171;SDS011;40076;52.354;4.970;2022-11-20T01:51:41;11.60;;;7.05;;
54171;SDS011;40076;52.354;4.970;2022-11-20T01:54:11;11.98;;;6.90;;
54171;SDS011;40076;52.354;4.970;2022-11-20T01:56:42;12.07;;;7.55;;
54171;SDS011;40076;52.354;4.970;2022-11-20T01:59:12;14.25;;;8.80;;
54171;SDS011;40076;52.354;4.970;2022-11-20T02:01:43;16.67;;;10.23;;
54171;SDS011;40076;52.354;4.970;2022-11-20T02:04:08;15.13;;;9.50;;
54171;SDS011;40076;52.354;4.970;2022-11-20T02:06:36;16.73;;;9.77;;
54171;SDS011;40076;52.354;4.970;2022-11-20T02:09:05;14.57;;;9.95;;
54171;SDS011;40076;52.354;4.970;2022-11-20T02:11:31;16.33;;;10.57;;
54171;SDS011;40076;52.354;4.970;2022-11-20T02:13:56;16.13;;;9.13;;
54171;SDS011;40076;52.354;4.970;2022-11-20T02:16:26;15.13;;;9.27;;
54171;SDS011;40076;52.354;4.970;2022-11-20T02:18:55;12.67;;;7.70;;
54171;SDS011;40076;52.354;4.970;2022-11-20T02:24:14;17.35;;;10.43;;
54171;SDS011;40076;52.354;4.970;2022-11-20T02:26:46;16.67;;;9.77;;
54171;SDS011;40076;52.354;4.970;2022-11-20T02:29:13;16.67;;;10.40;;
54171;SDS011;40076;52.354;4.970;2022-11-20T02:31:42;16.05;;;9.82;;
54171;SDS011;40076;52.354;4.970;2022-11-20T02:34:10;16.33;;;9.95;;
54171;SDS011;40076;52.354;4.970;2022-11-20T02:36:36;16.95;;;9.98;;
54171;SDS011;40076;52.354;4.970;2022-11-20T02:39:07;14.88;;;9.48;;
54171;SDS011;40076;52.354;4.970;2022-11-20T02:41:34;15.90;;;9.43;;
54171;SDS011;40076;52.354;4.970;2022-11-20T02:44:02;15.48;;;9.63;;
54171;SDS011;40076;52.354;4.970;2022-11-20T02:46:28;14.27;;;9.32;;
54171;SDS011;40076;52.354;4.970;2022-11-20T02:48:53;14.65;;;9.80;;
54171;SDS011;40076;52.354;4.970;2022-11-20T02:51:19;16.75;;;10.10;;
54171;SDS011;40076;52.354;4.970;2022-11-20T02:53:44;16.13;;;9.90;;
54171;SDS011;40076;52.354;4.970;2022-11-20T02:56:10;17.80;;;10.77;;
54171;SDS011;40076;52.354;4.970;2022-11-20T02:58:35;14.52;;;9.70;;
54171;SDS011;40076;52.354;4.970;2022-11-20T03:01:00;17.92;;;10.43;;
54171;SDS011;40076;52.354;4.970;2022-11-20T03:03:26;16.95;;;10.20;;
54171;SDS011;40076;52.354;4.970;2022-11-20T03:05:51;15.55;;;10.13;;
54171;SDS011;40076;52.354;4.970;2022-11-20T03:08:16;17.88;;;10.18;;
54171;SDS011;40076;52.354;4.970;2022-11-20T03:10:42;16.83;;;10.77;;
54171;SDS011;40076;52.354;4.970;2022-11-20T03:13:07;16.63;;;10.60;;
54171;SDS011;40076;52.354;4.970;2022-11-20T03:15:32;19.27;;;10.38;;
54171;SDS011;40076;52.354;4.970;2022-11-20T03:17:58;20.05;;;11.77;;
54171;SDS011;40076;52.354;4.970;2022-11-20T03:20:23;19.38;;;12.13;;
54171;SDS011;40076;52.354;4.970;2022-11-20T03:22:48;18.02;;;10.48;;
54171;SDS011;40076;52.354;4.970;2022-11-20T03:25:14;17.95;;;10.15;;
54171;SDS011;40076;52.354;4.970;2022-11-20T03:27:39;17.10;;;10.85;;
54171;SDS011;40076;52.354;4.970;2022-11-20T03:30:08;17.60;;;10.30;;
54171;SDS011;40076;52.354;4.970;2022-11-20T03:32:34;18.30;;;10.90;;
54171;SDS011;40076;52.354;4.970;2022-11-20T03:34:59;15.68;;;9.90;;
54171;SDS011;40076;52.354;4.970;2022-11-20T03:37:25;14.02;;;9.20;;
54171;SDS011;40076;52.354;4.970;2022-11-20T03:39:51;15.48;;;9.95;;
54171;SDS011;40076;52.354;4.970;2022-11-20T03:42:16;18.77;;;10.38;;
54171;SDS011;40076;52.354;4.970;2022-11-20T03:45:00;15.10;;;10.15;;
54171;SDS011;40076;52.354;4.970;2022-11-20T03:47:26;15.93;;;10.10;;
54171;SDS011;40076;52.354;4.970;2022-11-20T03:49:51;17.02;;;10.20;;
54171;SDS011;40076;52.354;4.970;2022-11-20T03:52:16;17.58;;;10.00;;
54171;SDS011;40076;52.354;4.970;2022-11-20T03:54:42;15.98;;;9.70;;
54171;SDS011;40076;52.354;4.970;2022-11-20T03:57:07;16.20;;;10.75;;
54171;SDS011;40076;52.354;4.970;2022-11-20T03:59:32;19.98;;;10.77;;
54171;SDS011;40076;52.354;4.970;2022-11-20T04:01:58;18.85;;;11.32;;
54171;SDS011;40076;52.354;4.970;2022-11-20T04:04:23;16.30;;;10.82;;
54171;SDS011;40076;52.354;4.970;2022-11-20T04:06:48;16.85;;;9.88;;
54171;SDS011;40076;52.354;4.970;2022-11-20T04:09:14;19.63;;;11.27;;
54171;SDS011;40076;52.354;4.970;2022-11-20T04:11:40;18.80;;;10.35;;
54171;SDS011;40076;52.354;4.970;2022-11-20T04:14:06;17.73;;;10.45;;
54171;SDS011;40076;52.354;4.970;2022-11-20T04:16:37;17.88;;;10.25;;
54171;SDS011;40076;52.354;4.970;2022-11-20T04:19:04;19.70;;;11.73;;
54171;SDS011;40076;52.354;4.970;2022-11-20T04:21:31;17.60;;;10.68;;
54171;SDS011;40076;52.354;4.970;2022-11-20T04:23:57;19.60;;;11.30;;
54171;SDS011;40076;52.354;4.970;2022-11-20T04:26:23;19.42;;;11.25;;
54171;SDS011;40076;52.354;4.970;2022-11-20T04:28:50;18.05;;;10.70;;
54171;SDS011;40076;52.354;4.970;2022-11-20T04:31:17;16.90;;;10.88;;
54171;SDS011;40076;52.354;4.970;2022-11-20T04:33:44;18.00;;;10.43;;
54171;SDS011;40076;52.354;4.970;2022-11-20T04:36:13;18.15;;;11.07;;
54171;SDS011;40076;52.354;4.970;2022-11-20T04:38:40;15.95;;;10.77;;
54171;SDS011;40076;52.354;4.970;2022-11-20T04:41:06;15.77;;;10.05;;
54171;SDS011;40076;52.354;4.970;2022-11-20T04:43:33;19.73;;;12.10;;
54171;SDS011;40076;52.354;4.970;2022-11-20T04:45:59;17.75;;;11.25;;
54171;SDS011;40076;52.354;4.970;2022-11-20T04:48:26;17.30;;;11.18;;
54171;SDS011;40076;52.354;4.970;2022-11-20T04:50:53;17.92;;;10.40;;
54171;SDS011;40076;52.354;4.970;2022-11-20T04:53:18;19.35;;;10.85;;
54171;SDS011;40076;52.354;4.970;2022-11-20T04:55:45;19.25;;;11.10;;
54171;SDS011;40076;52.354;4.970;2022-11-20T04:58:10;19.70;;;11.02;;
54171;SDS011;40076;52.354;4.970;2022-11-20T05:00:36;15.98;;;10.70;;
54171;SDS011;40076;52.354;4.970;2022-11-20T05:03:01;18.38;;;12.10;;
54171;SDS011;40076;52.354;4.970;2022-11-20T05:05:27;17.90;;;11.18;;
54171;SDS011;40076;52.354;4.970;2022-11-20T05:07:52;19.13;;;11.07;;
54171;SDS011;40076;52.354;4.970;2022-11-20T05:10:20;17.25;;;11.25;;
54171;SDS011;40076;52.354;4.970;2022-11-20T05:12:45;16.95;;;10.75;;
54171;SDS011;40076;52.354;4.970;2022-11-20T05:15:11;18.45;;;11.48;;
54171;SDS011;40076;52.354;4.970;2022-11-20T05:17:36;16.95;;;11.00;;
54171;SDS011;40076;52.354;4.970;2022-11-20T05:20:01;17.00;;;10.73;;
54171;SDS011;40076;52.354;4.970;2022-11-20T05:22:27;17.00;;;10.30;;
54171;SDS011;40076;52.354;4.970;2022-11-20T05:24:52;17.60;;;11.02;;
54171;SDS011;40076;52.354;4.970;2022-11-20T05:27:17;17.10;;;11.15;;
54171;SDS011;40076;52.354;4.970;2022-11-20T05:29:43;17.30;;;10.40;;
54171;SDS011;40076;52.354;4.970;2022-11-20T05:32:08;19.00;;;11.32;;
54171;SDS011;40076;52.354;4.970;2022-11-20T05:34:34;19.20;;;11.15;;
54171;SDS011;40076;52.354;4.970;2022-11-20T05:37:00;18.98;;;11.23;;
54171;SDS011;40076;52.354;4.970;2022-11-20T05:39:25;18.52;;;11.10;;
54171;SDS011;40076;52.354;4.970;2022-11-20T05:41:50;18.88;;;11.50;;
54171;SDS011;40076;52.354;4.970;2022-11-20T05:44:36;18.67;;;11.70;;
54171;SDS011;40076;52.354;4.970;2022-11-20T05:47:01;18.38;;;11.23;;
54171;SDS011;40076;52.354;4.970;2022-11-20T05:49:26;18.77;;;12.07;;
54171;SDS011;40076;52.354;4.970;2022-11-20T05:51:52;18.17;;;11.48;;
54171;SDS011;40076;52.354;4.970;2022-11-20T05:54:17;18.05;;;11.05;;
54171;SDS011;40076;52.354;4.970;2022-11-20T05:56:42;18.70;;;11.27;;
54171;SDS011;40076;52.354;4.970;2022-11-20T05:59:07;18.10;;;11.52;;
54171;SDS011;40076;52.354;4.970;2022-11-20T06:01:33;19.58;;;11.43;;
54171;SDS011;40076;52.354;4.970;2022-11-20T06:03:58;16.80;;;10.52;;
54171;SDS011;40076;52.354;4.970;2022-11-20T06:06:23;18.38;;;11.65;;
54171;SDS011;40076;52.354;4.970;2022-11-20T06:08:50;18.80;;;11.90;;
54171;SDS011;40076;52.354;4.970;2022-11-20T06:11:16;19.67;;;11.95;;
54171;SDS011;40076;52.354;4.970;2022-11-20T06:13:42;18.67;;;11.57;;
54171;SDS011;40076;52.354;4.970;2022-11-20T06:16:08;20.48;;;11.68;;
54171;SDS011;40076;52.354;4.970;2022-11-20T06:18:34;17.85;;;11.45;;
54171;SDS011;40076;52.354;4.970;2022-11-20T06:21:00;19.25;;;11.48;;
54171;SDS011;40076;52.354;4.970;2022-11-20T06:23:28;19.67;;;11.55;;
54171;SDS011;40076;52.354;4.970;2022-11-20T06:25:55;18.70;;;12.18;;
54171;SDS011;40076;52.354;4.970;2022-11-20T06:28:20;20.50;;;12.02;;
54171;SDS011;40076;52.354;4.970;2022-11-20T06:30:47;20.55;;;11.55;;
54171;SDS011;40076;52.354;4.970;2022-11-20T06:33:12;18.35;;;11.10;;
54171;SDS011;40076;52.354;4.970;2022-11-20T06:35:37;20.80;;;12.63;;
54171;SDS011;40076;52.354;4.970;2022-11-20T06:38:03;18.95;;;11.60;;
54171;SDS011;40076;52.354;4.970;2022-11-20T06:40:28;20.55;;;11.93;;
54171;SDS011;40076;52.354;4.970;2022-11-20T06:42:53;19.95;;;11.80;;
54171;SDS011;40076;52.354;4.970;2022-11-20T06:45:19;19.45;;;11.63;;
54171;SDS011;40076;52.354;4.970;2022-11-20T06:47:45;21.40;;;12.00;;
54171;SDS011;40076;52.354;4.970;2022-11-20T06:50:10;20.98;;;13.40;;
54171;SDS011;40076;52.354;4.970;2022-11-20T06:52:35;19.90;;;12.80;;
54171;SDS011;40076;52.354;4.970;2022-11-20T06:55:01;21.90;;;12.88;;
54171;SDS011;40076;52.354;4.970;2022-11-20T06:57:26;18.45;;;11.88;;
54171;SDS011;40076;52.354;4.970;2022-11-20T06:59:51;19.88;;;12.07;;
54171;SDS011;40076;52.354;4.970;2022-11-20T07:02:16;22.27;;;13.23;;
54171;SDS011;40076;52.354;4.970;2022-11-20T07:04:42;22.00;;;12.63;;
54171;SDS011;40076;52.354;4.970;2022-11-20T07:07:08;21.75;;;12.88;;
54171;SDS011;40076;52.354;4.970;2022-11-20T07:09:33;20.95;;;13.27;;
54171;SDS011;40076;52.354;4.970;2022-11-20T07:11:58;31.08;;;12.82;;
54171;SDS011;40076;52.354;4.970;2022-11-20T07:14:24;22.95;;;14.13;;
54171;SDS011;40076;52.354;4.970;2022-11-20T07:16:49;21.63;;;14.07;;
54171;SDS011;40076;52.354;4.970;2022-11-20T07:19:14;24.63;;;14.52;;
54171;SDS011;40076;52.354;4.970;2022-11-20T07:21:40;21.85;;;14.40;;
54171;SDS011;40076;52.354;4.970;2022-11-20T07:24:05;23.50;;;14.60;;
54171;SDS011;40076;52.354;4.970;2022-11-20T07:26:32;22.77;;;13.77;;
54171;SDS011;40076;52.354;4.970;2022-11-20T07:28:57;24.38;;;13.63;;
54171;SDS011;40076;52.354;4.970;2022-11-20T07:31:25;27.70;;;15.55;;
54171;SDS011;40076;52.354;4.970;2022-11-20T07:33:51;24.52;;;14.45;;
54171;SDS011;40076;52.354;4.970;2022-11-20T07:36:16;24.23;;;13.70;;
54171;SDS011;40076;52.354;4.970;2022-11-20T07:38:41;24.10;;;14.55;;
54171;SDS011;40076;52.354;4.970;2022-11-20T07:41:07;24.42;;;14.30;;
54171;SDS011;40076;52.354;4.970;2022-11-20T07:43:32;26.98;;;15.63;;
54171;SDS011;40076;52.354;4.970;2022-11-20T07:45:58;23.65;;;14.77;;
54171;SDS011;40076;52.354;4.970;2022-11-20T07:48:24;25.92;;;15.30;;
54171;SDS011;40076;52.354;4.970;2022-11-20T07:50:53;25.85;;;14.77;;
54171;SDS011;40076;52.354;4.970;2022-11-20T07:53:18;23.80;;;15.15;;
54171;SDS011;40076;52.354;4.970;2022-11-20T07:55:45;27.38;;;16.33;;
54171;SDS011;40076;52.354;4.970;2022-11-20T07:58:11;29.90;;;15.38;;
54171;SDS011;40076;52.354;4.970;2022-11-20T08:00:36;25.60;;;15.48;;
54171;SDS011;40076;52.354;4.970;2022-11-20T08:03:05;27.30;;;16.25;;
54171;SDS011;40076;52.354;4.970;2022-11-20T08:05:30;25.38;;;16.38;;
54171;SDS011;40076;52.354;4.970;2022-11-20T08:07:56;25.65;;;16.35;;
54171;SDS011;40076;52.354;4.970;2022-11-20T08:10:21;27.05;;;16.38;;
54171;SDS011;40076;52.354;4.970;2022-11-20T08:12:47;27.92;;;16.42;;
54171;SDS011;40076;52.354;4.970;2022-11-20T08:15:32;27.45;;;15.32;;
54171;SDS011;40076;52.354;4.970;2022-11-20T08:18:01;26.25;;;16.38;;
54171;SDS011;40076;52.354;4.970;2022-11-20T08:20:30;23.40;;;12.50;;
54171;SDS011;40076;52.354;4.970;2022-11-20T08:22:59;27.20;;;16.60;;
54171;SDS011;40076;52.354;4.970;2022-11-20T08:25:26;25.27;;;16.33;;
54171;SDS011;40076;52.354;4.970;2022-11-20T08:27:52;24.40;;;14.38;;
54171;SDS011;40076;52.354;4.970;2022-11-20T08:30:17;24.40;;;15.35;;
54171;SDS011;40076;52.354;4.970;2022-11-20T08:32:43;23.48;;;14.95;;
54171;SDS011;40076;52.354;4.970;2022-11-20T08:35:08;24.20;;;15.60;;
54171;SDS011;40076;52.354;4.970;2022-11-20T08:37:33;26.40;;;16.48;;
54171;SDS011;40076;52.354;4.970;2022-11-20T08:39:58;25.55;;;15.98;;
54171;SDS011;40076;52.354;4.970;2022-11-20T08:42:24;24.98;;;16.17;;
54171;SDS011;40076;52.354;4.970;2022-11-20T08:44:49;26.90;;;16.52;;
54171;SDS011;40076;52.354;4.970;2022-11-20T08:47:14;27.73;;;16.95;;
54171;SDS011;40076;52.354;4.970;2022-11-20T08:49:40;28.30;;;17.48;;
54171;SDS011;40076;52.354;4.970;2022-11-20T08:52:05;26.60;;;16.42;;
54171;SDS011;40076;52.354;4.970;2022-11-20T08:54:30;29.55;;;17.02;;
54171;SDS011;40076;52.354;4.970;2022-11-20T08:56:55;28.33;;;17.05;;
54171;SDS011;40076;52.354;4.970;2022-11-20T08:59:21;28.55;;;17.17;;
54171;SDS011;40076;52.354;4.970;2022-11-20T09:01:46;29.08;;;17.55;;
54171;SDS011;40076;52.354;4.970;2022-11-20T09:04:11;28.40;;;17.25;;
54171;SDS011;40076;52.354;4.970;2022-11-20T09:06:39;27.08;;;16.67;;
54171;SDS011;40076;52.354;4.970;2022-11-20T09:09:04;29.70;;;17.15;;
54171;SDS011;40076;52.354;4.970;2022-11-20T09:11:30;30.48;;;18.80;;
54171;SDS011;40076;52.354;4.970;2022-11-20T09:13:56;28.42;;;17.75;;
54171;SDS011;40076;52.354;4.970;2022-11-20T09:16:21;29.17;;;17.75;;
54171;SDS011;40076;52.354;4.970;2022-11-20T09:18:46;28.55;;;17.30;;
54171;SDS011;40076;52.354;4.970;2022-11-20T09:21:14;26.52;;;17.80;;
54171;SDS011;40076;52.354;4.970;2022-11-20T09:23:40;32.88;;;19.83;;
54171;SDS011;40076;52.354;4.970;2022-11-20T09:26:06;29.50;;;18.92;;
54171;SDS011;40076;52.354;4.970;2022-11-20T09:28:38;21.38;;;14.15;;
54171;SDS011;40076;52.354;4.970;2022-11-20T09:31:08;29.65;;;18.75;;
54171;SDS011;40076;52.354;4.970;2022-11-20T09:33:40;31.50;;;18.30;;
54171;SDS011;40076;52.354;4.970;2022-11-20T09:36:05;28.98;;;18.58;;
54171;SDS011;40076;52.354;4.970;2022-11-20T09:38:31;26.92;;;17.15;;
54171;SDS011;40076;52.354;4.970;2022-11-20T09:40:57;30.08;;;18.15;;
54171;SDS011;40076;52.354;4.970;2022-11-20T09:43:30;30.52;;;19.52;;
54171;SDS011;40076;52.354;4.970;2022-11-20T09:54:06;37.47;;;18.98;;
54171;SDS011;40076;52.354;4.970;2022-11-20T09:56:33;29.75;;;18.63;;
54171;SDS011;40076;52.354;4.970;2022-11-20T09:59:04;32.00;;;20.23;;
54171;SDS011;40076;52.354;4.970;2022-11-20T10:01:32;35.53;;;20.80;;
54171;SDS011;40076;52.354;4.970;2022-11-20T10:06:31;30.85;;;19.40;;
54171;SDS011;40076;52.354;4.970;2022-11-20T10:19:45;30.20;;;19.40;;
54171;SDS011;40076;52.354;4.970;2022-11-20T10:22:25;29.17;;;18.77;;
54171;SDS011;40076;52.354;4.970;2022-11-20T10:25:05;29.25;;;17.50;;
54171;SDS011;40076;52.354;4.970;2022-11-20T10:30:13;30.90;;;18.83;;
54171;SDS011;40076;52.354;4.970;2022-11-20T10:32:42;30.23;;;18.55;;
54171;SDS011;40076;52.354;4.970;2022-11-20T10:35:28;27.75;;;17.65;;
54171;SDS011;40076;52.354;4.970;2022-11-20T10:38:00;29.73;;;18.27;;
54171;SDS011;40076;52.354;4.970;2022-11-20T10:40:54;32.13;;;18.30;;
54171;SDS011;40076;52.354;4.970;2022-11-20T10:43:44;33.13;;;19.65;;
54171;SDS011;40076;52.354;4.970;2022-11-20T10:46:18;30.60;;;18.67;;
54171;SDS011;40076;52.354;4.970;2022-11-20T10:48:47;29.17;;;18.48;;
54171;SDS011;40076;52.354;4.970;2022-11-20T11:00:02;32.80;;;19.88;;
54171;SDS011;40076;52.354;4.970;2022-11-20T11:02:42;30.52;;;19.73;;
54171;SDS011;40076;52.354;4.970;2022-11-20T11:05:17;24.00;;;15.45;;
54171;SDS011;40076;52.354;4.970;2022-11-20T11:07:55;31.17;;;19.80;;
54171;SDS011;40076;52.354;4.970;2022-11-20T11:10:24;32.90;;;21.02;;
54171;SDS011;40076;52.354;4.970;2022-11-20T11:13:01;33.60;;;20.23;;
54171;SDS011;40076;52.354;4.970;2022-11-20T11:15:28;34.03;;;21.25;;
54171;SDS011;40076;52.354;4.970;2022-11-20T11:18:04;36.97;;;21.95;;
54171;SDS011;40076;52.354;4.970;2022-11-20T11:20:30;32.72;;;21.27;;
54171;SDS011;40076;52.354;4.970;2022-11-20T11:22:57;40.13;;;22.65;;
54171;SDS011;40076;52.354;4.970;2022-11-20T11:25:31;43.28;;;26.15;;
54171;SDS011;40076;52.354;4.970;2022-11-20T11:28:02;37.05;;;22.08;;
54171;SDS011;40076;52.354;4.970;2022-11-20T11:30:51;34.85;;;22.02;;
54171;SDS011;40076;52.354;4.970;2022-11-20T11:33:20;36.78;;;22.02;;
54171;SDS011;40076;52.354;4.970;2022-11-20T11:35:48;40.20;;;23.92;;
54171;SDS011;40076;52.354;4.970;2022-11-20T11:38:23;37.38;;;22.17;;
54171;SDS011;40076;52.354;4.970;2022-11-20T11:40:57;44.10;;;24.80;;
54171;SDS011;40076;52.354;4.970;2022-11-20T11:43:24;38.40;;;23.65;;
54171;SDS011;40076;52.354;4.970;2022-11-20T11:54:18;42.58;;;25.05;;
54171;SDS011;40076;52.354;4.970;2022-11-20T11:56:48;44.30;;;25.48;;
54171;SDS011;40076;52.354;4.970;2022-11-20T11:59:22;45.20;;;26.38;;
54171;SDS011;40076;52.354;4.970;2022-11-20T12:01:57;46.03;;;27.20;;
54171;SDS011;40076;52.354;4.970;2022-11-20T12:04:37;44.47;;;26.65;;
54171;SDS011;40076;52.354;4.970;2022-11-20T12:07:10;46.55;;;26.67;;
54171;SDS011;40076;52.354;4.970;2022-11-20T12:09:43;45.20;;;26.17;;
54171;SDS011;40076;52.354;4.970;2022-11-20T12:12:17;49.08;;;28.02;;
54171;SDS011;40076;52.354;4.970;2022-11-20T12:14:47;49.17;;;27.48;;
54171;SDS011;40076;52.354;4.970;2022-11-20T12:17:15;51.42;;;30.08;;
54171;SDS011;40076;52.354;4.970;2022-11-20T12:19:42;49.83;;;29.75;;
54171;SDS011;40076;52.354;4.970;2022-11-20T12:22:25;51.00;;;30.13;;
54171;SDS011;40076;52.354;4.970;2022-11-20T12:25:08;53.17;;;29.70;;
54171;SDS011;40076;52.354;4.970;2022-11-20T12:35:33;55.45;;;30.65;;
54171;SDS011;40076;52.354;4.970;2022-11-20T12:43:26;60.00;;;30.90;;
54171;SDS011;40076;52.354;4.970;2022-11-20T12:48:48;60.58;;;30.45;;
54171;SDS011;40076;52.354;4.970;2022-11-20T12:57:03;65.03;;;31.92;;
54171;SDS011;40076;52.354;4.970;2022-11-20T12:59:49;64.13;;;33.33;;
54171;SDS011;40076;52.354;4.970;2022-11-20T13:06:10;65.80;;;34.00;;
54171;SDS011;40076;52.354;4.970;2022-11-20T13:08:53;66.78;;;31.95;;
54171;SDS011;40076;52.354;4.970;2022-11-20T13:19:12;69.53;;;34.35;;
54171;SDS011;40076;52.354;4.970;2022-11-20T13:21:43;68.03;;;34.05;;
54171;SDS011;40076;52.354;4.970;2022-11-20T13:29:27;67.23;;;34.00;;
54171;SDS011;40076;52.354;4.970;2022-11-20T13:32:01;69.30;;;34.13;;
54171;SDS011;40076;52.354;4.970;2022-11-20T13:34:29;65.65;;;34.13;;
54171;SDS011;40076;52.354;4.970;2022-11-20T13:36:56;65.70;;;34.50;;
54171;SDS011;40076;52.354;4.970;2022-11-20T13:39:26;70.63;;;34.10;;
54171;SDS011;40076;52.354;4.970;2022-11-20T13:41:57;50.67;;;24.95;;
54171;SDS011;40076;52.354;4.970;2022-11-20T13:44:25;65.57;;;34.47;;
54171;SDS011;40076;52.354;4.970;2022-11-20T13:46:54;62.75;;;32.97;;
54171;SDS011;40076;52.354;4.970;2022-11-20T13:52:31;66.40;;;35.58;;
54171;SDS011;40076;52.354;4.970;2022-11-20T13:58:04;66.93;;;35.38;;
54171;SDS011;40076;52.354;4.970;2022-11-20T14:00:29;74.25;;;37.33;;
54171;SDS011;40076;52.354;4.970;2022-11-20T14:05:50;69.53;;;35.97;;
54171;SDS011;40076;52.354;4.970;2022-11-20T14:08:28;68.10;;;35.33;;
54171;SDS011;40076;52.354;4.970;2022-11-20T14:11:02;68.43;;;36.03;;
54171;SDS011;40076;52.354;4.970;2022-11-20T14:13:29;69.15;;;35.63;;
54171;SDS011;40076;52.354;4.970;2022-11-20T14:15:57;76.20;;;37.15;;
54171;SDS011;40076;52.354;4.970;2022-11-20T14:18:25;69.45;;;34.75;;
54171;SDS011;40076;52.354;4.970;2022-11-20T14:20:51;68.78;;;35.22;;
54171;SDS011;40076;52.354;4.970;2022-11-20T14:23:23;69.65;;;35.65;;
54171;SDS011;40076;52.354;4.970;2022-11-20T14:25:50;71.07;;;36.47;;
54171;SDS011;40076;52.354;4.970;2022-11-20T14:28:24;69.78;;;36.72;;
54171;SDS011;40076;52.354;4.970;2022-11-20T14:30:54;70.88;;;36.15;;
54171;SDS011;40076;52.354;4.970;2022-11-20T14:33:21;71.65;;;36.55;;
54171;SDS011;40076;52.354;4.970;2022-11-20T14:35:56;71.68;;;36.05;;
54171;SDS011;40076;52.354;4.970;2022-11-20T14:40:52;70.55;;;36.08;;
54171;SDS011;40076;52.354;4.970;2022-11-20T14:43:27;68.55;;;36.92;;
54171;SDS011;40076;52.354;4.970;2022-11-20T14:45:59;73.05;;;37.55;;
54171;SDS011;40076;52.354;4.970;2022-11-20T14:48:31;70.97;;;38.88;;
54171;SDS011;40076;52.354;4.970;2022-11-20T14:51:00;71.72;;;36.67;;
54171;SDS011;40076;52.354;4.970;2022-11-20T14:53:25;78.28;;;37.80;;
54171;SDS011;40076;52.354;4.970;2022-11-20T14:55:55;71.43;;;36.97;;
54171;SDS011;40076;52.354;4.970;2022-11-20T14:58:26;72.43;;;38.05;;
54171;SDS011;40076;52.354;4.970;2022-11-20T15:00:57;74.97;;;37.35;;
54171;SDS011;40076;52.354;4.970;2022-11-20T15:03:35;73.57;;;38.95;;
54171;SDS011;40076;52.354;4.970;2022-11-20T15:06:01;77.65;;;36.70;;
54171;SDS011;40076;52.354;4.970;2022-11-20T15:08:27;74.82;;;38.30;;
54171;SDS011;40076;52.354;4.970;2022-11-20T15:10:52;75.40;;;36.53;;
54171;SDS011;40076;52.354;4.970;2022-11-20T15:15:52;65.50;;;30.00;;
54171;SDS011;40076;52.354;4.970;2022-11-20T15:18:21;76.55;;;37.88;;
54171;SDS011;40076;52.354;4.970;2022-11-20T15:20:49;80.05;;;38.42;;
54171;SDS011;40076;52.354;4.970;2022-11-20T15:23:16;84.47;;;38.78;;
54171;SDS011;40076;52.354;4.970;2022-11-20T15:25:45;78.28;;;37.92;;
54171;SDS011;40076;52.354;4.970;2022-11-20T15:28:21;74.95;;;39.17;;
54171;SDS011;40076;52.354;4.970;2022-11-20T15:30:54;75.00;;;38.60;;
54171;SDS011;40076;52.354;4.970;2022-11-20T15:33:20;80.18;;;38.22;;
54171;SDS011;40076;52.354;4.970;2022-11-20T15:35:46;85.80;;;41.45;;
54171;SDS011;40076;52.354;4.970;2022-11-20T15:38:11;82.80;;;42.40;;
54171;SDS011;40076;52.354;4.970;2022-11-20T15:40:36;82.97;;;41.05;;
54171;SDS011;40076;52.354;4.970;2022-11-20T15:43:02;81.55;;;38.00;;
54171;SDS011;40076;52.354;4.970;2022-11-20T15:45:28;82.13;;;38.92;;
54171;SDS011;40076;52.354;4.970;2022-11-20T15:47:55;80.40;;;37.95;;
54171;SDS011;40076;52.354;4.970;2022-11-20T15:50:20;78.10;;;36.88;;
54171;SDS011;40076;52.354;4.970;2022-11-20T15:52:47;78.13;;;38.25;;
54171;SDS011;40076;52.354;4.970;2022-11-20T15:55:12;77.75;;;38.90;;
54171;SDS011;40076;52.354;4.970;2022-11-20T15:57:37;83.82;;;40.53;;
54171;SDS011;40076;52.354;4.970;2022-11-20T16:00:03;85.95;;;39.55;;
54171;SDS011;40076;52.354;4.970;2022-11-20T16:02:28;83.28;;;40.53;;
54171;SDS011;40076;52.354;4.970;2022-11-20T16:04:54;77.45;;;39.53;;